Airfield :
LOGIN :

Register | Disclaimer

   EN    FR    IT 

 










Legend :    VFR   Marginal VFR   IFR   Intensive IFR   Very Intensive IFR
Visi :
Ceiling :
>= 8 km
>= 3000ft
5 to 8 km
1000 to 3000 ft
1500m to 5 km
500 to 1000 ft
800 to 1500m
200 to 500 ft
< 800m
< 200 ft
Symbols :   Thunderstorms  Fog  Heavy snow  Heavy precipitations  Wind > 20 kt
SIGMETs :     Misc.  Thunderstorms  Icing  Turbulence  Mountain Waves  Volcanic Ashes






- Airport Elevation : 70 ft
- IATA code : LEI


LEAM - Almeria

CURRENT METAR :
  • 011730Z AUTO 23024KT CAVOK 18/09 Q1010

EXPIRED METARs :
  • 011700Z AUTO 23025KT CAVOK 17/11 Q1010
  • 011630Z AUTO 23019KT 200V260 CAVOK 18/12 Q1009
  • 011600Z AUTO 24023KT CAVOK 18/10 Q1010
  • 011530Z AUTO 24022G32KT 200V260 CAVOK 18/12 Q1010
  • 011500Z AUTO 23024G35KT 9999 SCT080 19/12 Q1010

TAF TAF LEAM
Valid from the 01 at 15:00 until the 02 at 15:00 UTC


011400Z 0115/0215 22018KT 9999 FEW020 TX19/0212Z TN11/0206Z
PROB40
TEMPO 0115/0120 22020G30KT
BECMG 0121/0123 33005KT
BECMG 0208/0210 22015KT



MET'MAP, your aeronautical weather chart ! - Copyright ORBIFLY December 2007 - Disclaimer

ORBIFLY MET'MAP TEAM :

Programming & Development : Alexandra Zaïnal
Concept & original design : Baudouin d'Aumeries
Assistance for programming : Marc-Olivier Méhu
Technical & hardware support : Manuel Goepfert

Contact : metmap@orbifly.com




SOURCES & CREDITS :

   NOAA